createdAt,value
2019-01-13T00:08:32.538Z,86.2
2019-01-13T00:18:35.952Z,85.5
2019-01-13T00:28:39.391Z,85.5
2019-01-13T00:38:43.825Z,86.5
2019-01-13T00:48:47.229Z,86.7
2019-01-13T00:58:50.655Z,87.5
2019-01-13T01:08:54.094Z,87.1
2019-01-13T01:18:57.526Z,87.5
2019-01-13T01:29:00.926Z,87.6
2019-01-13T01:39:04.358Z,87.4
2019-01-13T01:49:07.806Z,87.4
2019-01-13T01:59:11.210Z,86.8
2019-01-13T02:09:14.613Z,86.4
2019-01-13T02:19:18.018Z,86.5
2019-01-13T02:29:21.423Z,87.1
2019-01-13T02:39:24.847Z,87.6
2019-01-13T02:49:28.253Z,88.1
2019-01-13T02:59:31.656Z,87.8
2019-01-13T03:09:36.101Z,86.1
2019-01-13T03:19:39.600Z,86.3
2019-01-13T03:29:43.032Z,85.6
2019-01-13T03:39:46.507Z,86.2
2019-01-13T03:49:49.892Z,85.8
2019-01-13T03:59:53.297Z,87.6
2019-01-13T04:09:56.725Z,87.2
2019-01-13T04:20:00.266Z,87.5
2019-01-13T04:30:03.701Z,86.5
2019-01-13T04:40:07.104Z,85.9
2019-01-13T04:50:10.550Z,85.9
2019-01-13T05:00:14.033Z,85.8
2019-01-13T05:10:17.465Z,84.6
2019-01-13T05:20:20.889Z,84.5
2019-01-13T05:30:24.318Z,85.4
2019-01-13T05:40:27.726Z,85
2019-01-13T05:50:31.168Z,85.3
2019-01-13T06:00:34.592Z,84.5
2019-01-13T06:10:38.009Z,84.7
2019-01-13T06:20:41.437Z,84.7
2019-01-13T06:30:44.873Z,84.7
2019-01-13T06:40:48.306Z,84.6
2019-01-13T06:50:51.725Z,85.7
2019-01-13T07:00:55.122Z,86.5
2019-01-13T07:10:58.544Z,86.6
2019-01-13T07:21:01.948Z,86.4
2019-01-13T07:31:05.374Z,86.9
2019-01-13T07:41:08.774Z,87
2019-01-13T07:51:12.214Z,86.8
2019-01-13T08:01:15.627Z,87.1
2019-01-13T08:11:19.024Z,87.6
2019-01-13T08:21:22.449Z,87.6
2019-01-13T08:31:25.865Z,86.9
2019-01-13T08:41:29.250Z,86.7
2019-01-13T08:51:32.675Z,86.3
2019-01-13T09:01:36.092Z,86.8
2019-01-13T09:11:39.493Z,88.3
2019-01-13T09:21:42.901Z,87.7
2019-01-13T09:31:46.331Z,87.8
2019-01-13T09:41:49.766Z,88.4
2019-01-13T09:51:53.169Z,89.1
2019-01-13T10:01:56.598Z,88.3
2019-01-13T10:12:00.017Z,88.6
2019-01-13T10:22:03.455Z,87.9
2019-01-13T10:32:07.893Z,88.3
2019-01-13T10:42:11.343Z,88.5
2019-01-13T10:52:14.792Z,88.2
2019-01-13T11:02:18.239Z,88.6
2019-01-13T11:12:21.689Z,87.1
2019-01-13T11:22:25.092Z,86.6
2019-01-13T11:32:28.516Z,87.7
2019-01-13T11:42:31.905Z,87.5
2019-01-13T11:52:35.345Z,88
2019-01-13T12:02:38.817Z,88.4
2019-01-13T12:12:42.232Z,89.2
2019-01-13T12:22:45.639Z,88.9
2019-01-13T12:32:49.060Z,89.1
2019-01-13T12:42:52.509Z,89.9
2019-01-13T12:52:55.966Z,89.1
2019-01-13T13:02:59.402Z,90.3
2019-01-13T13:13:02.830Z,90.1
2019-01-13T13:23:06.238Z,90.1
2019-01-13T13:33:09.650Z,90.2
2019-01-13T13:43:13.087Z,89.9
2019-01-13T13:53:16.501Z,90.2
2019-01-13T14:03:19.924Z,90
2019-01-13T14:13:23.485Z,90.2
2019-01-13T14:23:27.233Z,90.3
2019-01-13T14:33:30.647Z,90.1
2019-01-13T14:43:34.039Z,90.4
2019-01-13T14:53:37.483Z,90.8
2019-01-13T15:03:40.886Z,90.9
2019-01-13T15:13:44.323Z,90.7
2019-01-13T15:23:47.747Z,90.8
2019-01-13T15:33:51.178Z,91
2019-01-13T15:43:54.611Z,90.9
2019-01-13T15:53:58.020Z,91.4
2019-01-13T16:04:01.423Z,91.2
2019-01-13T16:14:04.855Z,91.3
2019-01-13T16:24:08.232Z,91.3
2019-01-13T16:34:11.633Z,91.3
2019-01-13T16:44:15.088Z,91.4
2019-01-13T16:54:18.546Z,91.8
2019-01-13T17:04:29.174Z,91.9
2019-01-13T17:14:32.623Z,91.8
2019-01-13T17:24:36.052Z,91.6
2019-01-13T17:34:39.446Z,91.9
2019-01-13T17:44:42.853Z,92
2019-01-13T17:54:46.318Z,92.2
2019-01-13T18:04:49.725Z,92.1
2019-01-13T18:14:53.132Z,92.1
2019-01-13T18:24:56.544Z,92.2
2019-01-13T18:34:59.955Z,92.3
2019-01-13T18:45:03.494Z,92.3
2019-01-13T18:55:06.887Z,92.3
2019-01-13T19:05:10.298Z,92.6
2019-01-13T19:15:13.736Z,92.6
2019-01-13T19:25:17.146Z,92.8
2019-01-13T19:35:20.565Z,92.9
2019-01-13T19:45:23.976Z,92.8
2019-01-13T19:55:27.381Z,92.8
2019-01-13T20:05:30.957Z,92.8
2019-01-13T20:15:34.656Z,92.7
2019-01-13T20:25:38.110Z,92.8
2019-01-13T20:35:41.531Z,92.7
2019-01-13T20:45:44.946Z,92.6
2019-01-13T20:55:48.351Z,92.5
2019-01-13T21:05:51.758Z,92.6
2019-01-13T21:15:55.199Z,92.4
2019-01-13T21:25:58.637Z,92
2019-01-13T21:36:02.065Z,91.9
2019-01-13T21:46:05.476Z,91.9
2019-01-13T21:56:08.903Z,91.4
2019-01-13T22:06:12.326Z,91.3
2019-01-13T22:16:15.775Z,91.5
2019-01-13T22:26:19.204Z,92
2019-01-13T22:36:22.603Z,92.1
2019-01-13T22:46:26.022Z,92.1
2019-01-13T22:56:29.419Z,92.2
2019-01-13T23:06:32.823Z,92.2
2019-01-13T23:16:36.243Z,92.1
2019-01-13T23:26:39.669Z,92.2
2019-01-13T23:36:43.081Z,92.1
2019-01-13T23:46:46.487Z,92.2
2019-01-13T23:56:49.895Z,91.8
